Time;durP1;ratioP1;P1;durP2;ratioP2;P2;SDS_P1;SDS_P2;PMS_P1;PMS_P2;Temp;Humidity;BMP_temperature;BMP_pressure;BME280_temperature;BME280_humidity;BME280_pressure;Samples;Min_cycle;Max_cycle;Signal;HPM_P1;HPM_P2
2021/07/20 00:00:08;;;;;;;9.43;7.18;;;;;;;;;;5033302;28;20021;-78
2021/07/20 00:02:37;;;;;;;9.73;7.15;;;;;;;;;;5033060;28;20059;-77
2021/07/20 00:05:07;;;;;;;9.00;6.68;;;;;;;;;;5032892;28;20032;-75
2021/07/20 00:07:33;;;;;;;10.63;7.72;;;;;;;;;;5033127;28;20029;-76
2021/07/20 00:10:00;;;;;;;11.35;6.57;;;;;;;;;;5032822;28;20041;-75
2021/07/20 00:12:26;;;;;;;12.60;6.82;;;;;;;;;;5037248;28;20060;-75
2021/07/20 00:14:52;;;;;;;10.65;6.55;;;;;;;;;;5036969;28;20068;-76
2021/07/20 00:17:22;;;;;;;12.25;6.68;;;;;;;;;;5037069;28;20025;-76
2021/07/20 00:19:48;;;;;;;9.35;7.28;;;;;;;;;;5037119;28;20513;-76
2021/07/20 00:22:14;;;;;;;9.02;6.18;;;;;;;;;;5037108;28;20079;-75
2021/07/20 00:24:40;;;;;;;9.80;6.57;;;;;;;;;;5036952;28;20495;-74
2021/07/20 00:27:06;;;;;;;9.93;6.22;;;;;;;;;;5036689;28;20160;-79
2021/07/20 00:29:32;;;;;;;8.57;6.05;;;;;;;;;;5036876;28;20026;-75
2021/07/20 00:31:58;;;;;;;9.07;5.93;;;;;;;;;;5036810;28;20026;-77
2021/07/20 00:34:24;;;;;;;9.45;7.30;;;;;;;;;;5036878;28;20026;-75
2021/07/20 00:36:50;;;;;;;10.13;6.10;;;;;;;;;;5036749;28;20470;-75
2021/07/20 00:39:16;;;;;;;9.38;6.25;;;;;;;;;;5036417;28;20080;-77
2021/07/20 00:41:42;;;;;;;10.00;7.15;;;;;;;;;;5036649;28;20083;-76
2021/07/20 00:44:08;;;;;;;9.25;6.63;;;;;;;;;;5036655;28;20109;-77
2021/07/20 00:46:34;;;;;;;9.20;6.93;;;;;;;;;;5036610;28;20052;-77
2021/07/20 00:49:00;;;;;;;9.43;6.70;;;;;;;;;;5036460;28;20100;-79
2021/07/20 00:51:27;;;;;;;10.27;6.65;;;;;;;;;;5036164;28;20476;-77
2021/07/20 00:53:53;;;;;;;9.98;7.10;;;;;;;;;;5036477;28;20053;-76
2021/07/20 00:56:19;;;;;;;9.88;6.43;;;;;;;;;;5036425;28;20460;-75
2021/07/20 00:58:45;;;;;;;9.82;7.38;;;;;;;;;;5036358;28;20025;-75
2021/07/20 01:01:12;;;;;;;9.25;6.43;;;;;;;;;;5036309;28;20034;-77
2021/07/20 01:03:38;;;;;;;11.20;6.75;;;;;;;;;;5035940;28;20025;-76
2021/07/20 01:06:05;;;;;;;12.52;7.00;;;;;;;;;;5040399;28;20388;-77
2021/07/20 01:08:31;;;;;;;10.25;7.40;;;;;;;;;;5055860;28;20492;-77
2021/07/20 01:10:59;;;;;;;11.13;7.32;;;;;;;;;;5056055;28;20104;-80
2021/07/20 01:13:25;;;;;;;10.57;6.93;;;;;;;;;;5056044;28;20096;-75
2021/07/20 01:15:51;;;;;;;11.23;7.32;;;;;;;;;;5055876;28;20028;-77
2021/07/20 01:18:18;;;;;;;10.75;6.72;;;;;;;;;;5056003;28;20036;-77
2021/07/20 01:20:44;;;;;;;9.25;6.13;;;;;;;;;;5055973;28;20514;-76
2021/07/20 01:23:21;;;;;;;11.32;7.15;;;;;;;;;;5055719;28;20029;-76
2021/07/20 01:25:47;;;;;;;9.25;6.85;;;;;;;;;;5037613;28;20029;-75
2021/07/20 01:28:17;;;;;;;8.60;6.53;;;;;;;;;;5055496;28;20130;-78
2021/07/20 01:30:44;;;;;;;9.73;6.43;;;;;;;;;;5055864;28;20481;-74
2021/07/20 01:33:12;;;;;;;8.68;6.68;;;;;;;;;;5055639;28;20032;-76
2021/07/20 01:35:38;;;;;;;8.10;6.00;;;;;;;;;;5055610;28;20053;-76
2021/07/20 01:38:08;;;;;;;10.10;6.75;;;;;;;;;;5055603;28;20028;-74
2021/07/20 01:40:34;;;;;;;10.50;6.47;;;;;;;;;;5055371;28;20071;-76
2021/07/20 01:43:01;;;;;;;10.82;6.57;;;;;;;;;;5055700;28;20032;-77
2021/07/20 01:45:31;;;;;;;9.55;6.30;;;;;;;;;;5055518;28;20028;-76
2021/07/20 01:47:58;;;;;;;10.10;6.95;;;;;;;;;;5055491;28;20029;-75
2021/07/20 01:50:25;;;;;;;9.70;6.70;;;;;;;;;;5037318;28;20395;-75
2021/07/20 01:52:53;;;;;;;9.20;6.38;;;;;;;;;;5055046;28;20028;-78
2021/07/20 01:55:19;;;;;;;9.73;6.30;;;;;;;;;;5055218;28;20027;-75
2021/07/20 01:57:45;;;;;;;11.82;7.32;;;;;;;;;;5055301;28;20024;-76
2021/07/20 02:00:16;;;;;;;9.55;6.75;;;;;;;;;;5055317;28;20389;-79
2021/07/20 02:02:55;;;;;;;8.73;5.88;;;;;;;;;;5036984;28;20037;-76
2021/07/20 02:08:26;;;;;;;10.20;6.70;;;;;;;;;;5034873;28;20048;-79
2021/07/20 02:10:53;;;;;;;8.50;5.60;;;;;;;;;;5017040;28;20049;-76
2021/07/20 02:13:19;;;;;;;10.25;6.57;;;;;;;;;;5034974;28;20100;-78
2021/07/20 02:15:47;;;;;;;10.88;6.75;;;;;;;;;;5034628;28;20025;-78
2021/07/20 02:18:13;;;;;;;8.65;6.35;;;;;;;;;;5034886;28;20064;-76
2021/07/20 02:20:40;;;;;;;9.43;7.05;;;;;;;;;;5034837;28;20026;-75
2021/07/20 02:23:07;;;;;;;9.48;7.30;;;;;;;;;;5017085;28;20021;-76
2021/07/20 02:25:33;;;;;;;12.00;6.85;;;;;;;;;;5034686;28;20029;-76
2021/07/20 02:28:00;;;;;;;11.57;6.60;;;;;;;;;;5034484;28;20470;-77
2021/07/20 02:30:26;;;;;;;9.73;6.75;;;;;;;;;;5034635;28;20017;-76
2021/07/20 02:32:53;;;;;;;8.82;6.97;;;;;;;;;;5034133;28;20051;-76
2021/07/20 02:35:23;;;;;;;10.65;7.20;;;;;;;;;;5034533;28;20493;-75
2021/07/20 02:37:50;;;;;;;9.55;6.75;;;;;;;;;;5034425;28;20025;-77
2021/07/20 02:40:17;;;;;;;9.00;6.85;;;;;;;;;;5034295;28;20556;-77
2021/07/20 02:42:44;;;;;;;9.27;7.13;;;;;;;;;;5034437;28;20025;-78
2021/07/20 02:45:11;;;;;;;10.63;7.47;;;;;;;;;;5034466;28;20026;-77
2021/07/20 02:47:37;;;;;;;12.15;7.40;;;;;;;;;;5034330;28;20044;-75
2021/07/20 02:50:11;;;;;;;11.90;6.65;;;;;;;;;;5034132;28;20545;-79
2021/07/20 02:52:37;;;;;;;10.10;7.05;;;;;;;;;;5034003;28;20026;-78
2021/07/20 02:55:03;;;;;;;9.10;7.10;;;;;;;;;;5034136;28;20459;-79
2021/07/20 02:57:32;;;;;;;9.80;7.22;;;;;;;;;;5034295;28;20474;-76
2021/07/20 02:59:59;;;;;;;10.02;6.80;;;;;;;;;;5034117;28;20052;-78
2021/07/20 03:02:26;;;;;;;10.55;6.32;;;;;;;;;;5033980;28;20032;-76
2021/07/20 03:04:52;;;;;;;11.35;6.95;;;;;;;;;;5033796;28;20437;-76
2021/07/20 03:07:20;;;;;;;9.65;6.60;;;;;;;;;;5048078;28;20128;-75
2021/07/20 03:09:49;;;;;;;10.02;6.57;;;;;;;;;;5053618;28;20045;-75
2021/07/20 03:12:15;;;;;;;8.85;6.50;;;;;;;;;;5053844;28;20025;-76
2021/07/20 03:14:43;;;;;;;9.05;5.95;;;;;;;;;;5053518;28;20393;-74
2021/07/20 03:17:10;;;;;;;8.20;5.80;;;;;;;;;;5053467;28;20043;-76
2021/07/20 03:19:37;;;;;;;7.65;5.32;;;;;;;;;;5053646;28;20029;-75
2021/07/20 03:22:07;;;;;;;11.10;8.45;;;;;;;;;;5053716;28;20051;-76
2021/07/20 03:24:35;;;;;;;13.60;12.15;;;;;;;;;;5053621;28;20028;-77
2021/07/20 03:27:02;;;;;;;13.40;9.63;;;;;;;;;;5053405;28;20555;-75
2021/07/20 03:29:29;;;;;;;12.30;8.18;;;;;;;;;;5053121;28;20040;-76
2021/07/20 03:31:56;;;;;;;14.00;8.48;;;;;;;;;;5053479;28;20028;-75
2021/07/20 03:34:22;;;;;;;19.00;8.15;;;;;;;;;;5053841;28;20457;-76
2021/07/20 03:36:49;;;;;;;12.50;7.75;;;;;;;;;;5053414;28;20021;-79
2021/07/20 03:39:16;;;;;;;14.23;7.78;;;;;;;;;;5053125;28;20021;-76
2021/07/20 03:41:43;;;;;;;9.43;7.03;;;;;;;;;;5053036;28;20496;-77
2021/07/20 03:44:10;;;;;;;12.70;7.15;;;;;;;;;;5053197;28;20099;-76
2021/07/20 03:46:37;;;;;;;10.63;7.68;;;;;;;;;;5052640;28;20021;-76
2021/07/20 03:49:03;;;;;;;10.63;7.55;;;;;;;;;;5053402;28;20026;-78
2021/07/20 03:51:30;;;;;;;12.32;7.93;;;;;;;;;;5052959;28;20075;-75
2021/07/20 03:53:56;;;;;;;13.05;7.85;;;;;;;;;;5053189;28;20095;-79
2021/07/20 03:56:23;;;;;;;18.13;9.88;;;;;;;;;;5053157;28;20100;-74
2021/07/20 03:58:50;;;;;;;14.07;10.15;;;;;;;;;;5053169;28;20060;-75
2021/07/20 04:01:17;;;;;;;17.40;10.15;;;;;;;;;;5053195;28;20029;-76
2021/07/20 04:03:45;;;;;;;22.52;10.88;;;;;;;;;;5052816;28;20029;-76
2021/07/20 04:06:12;;;;;;;19.65;11.02;;;;;;;;;;5047703;28;20112;-76
2021/07/20 04:08:39;;;;;;;17.73;9.32;;;;;;;;;;5032811;28;20405;-77
2021/07/20 04:11:06;;;;;;;13.15;8.02;;;;;;;;;;5033124;28;20029;-73
2021/07/20 04:13:32;;;;;;;15.27;8.07;;;;;;;;;;5033197;28;20490;-75
2021/07/20 04:16:00;;;;;;;11.93;7.22;;;;;;;;;;5032990;28;20022;-77
2021/07/20 04:18:26;;;;;;;12.93;7.63;;;;;;;;;;5033080;28;20158;-76
2021/07/20 04:20:52;;;;;;;15.38;8.77;;;;;;;;;;5033059;28;20071;-75
2021/07/20 04:23:23;;;;;;;22.70;9.15;;;;;;;;;;5032918;28;20535;-80
2021/07/20 04:25:50;;;;;;;16.13;9.32;;;;;;;;;;5032937;28;20045;-78
2021/07/20 04:28:17;;;;;;;19.83;10.27;;;;;;;;;;5032770;28;20029;-76
2021/07/20 04:30:45;;;;;;;20.17;10.48;;;;;;;;;;5032936;28;20033;-79
2021/07/20 04:33:15;;;;;;;23.92;10.93;;;;;;;;;;5032936;28;20529;-77
2021/07/20 04:35:41;;;;;;;30.17;12.57;;;;;;;;;;5032875;28;20164;-77
2021/07/20 04:38:08;;;;;;;26.27;12.88;;;;;;;;;;5032790;28;20029;-75
2021/07/20 04:40:34;;;;;;;26.90;13.23;;;;;;;;;;5032647;28;20021;-75
2021/07/20 04:43:00;;;;;;;26.38;11.48;;;;;;;;;;5032999;28;20057;-79
2021/07/20 04:45:27;;;;;;;25.50;11.73;;;;;;;;;;5032838;28;20024;-75
2021/07/20 04:47:53;;;;;;;32.00;14.10;;;;;;;;;;5032771;28;20025;-79
2021/07/20 04:50:19;;;;;;;39.70;19.85;;;;;;;;;;5032579;28;20025;-77
2021/07/20 04:52:45;;;;;;;29.77;14.60;;;;;;;;;;5032540;28;20029;-74
2021/07/20 04:55:12;;;;;;;16.40;9.82;;;;;;;;;;5014808;28;20390;-77
2021/07/20 04:57:39;;;;;;;13.20;8.05;;;;;;;;;;5035291;28;20026;-77
2021/07/20 05:00:06;;;;;;;14.45;7.82;;;;;;;;;;5036354;28;20025;-76
2021/07/20 05:02:33;;;;;;;23.00;11.40;;;;;;;;;;5036288;28;20030;-77
2021/07/20 05:05:00;;;;;;;15.02;8.80;;;;;;;;;;5036049;28;20025;-74
2021/07/20 05:07:26;;;;;;;13.30;7.88;;;;;;;;;;5051512;28;20398;-76
2021/07/20 05:09:52;;;;;;;10.05;7.10;;;;;;;;;;5055730;28;20049;-77
2021/07/20 05:12:19;;;;;;;9.10;6.70;;;;;;;;;;5056035;28;20052;-75
2021/07/20 05:14:45;;;;;;;11.10;6.60;;;;;;;;;;5056113;28;20511;-76
2021/07/20 05:17:11;;;;;;;12.23;6.82;;;;;;;;;;5055978;28;20025;-77
2021/07/20 05:19:38;;;;;;;11.40;6.45;;;;;;;;;;5056236;28;20037;-77
2021/07/20 05:22:04;;;;;;;12.38;7.00;;;;;;;;;;5055928;28;20064;-77
2021/07/20 05:24:33;;;;;;;9.35;6.40;;;;;;;;;;5055850;28;20060;-79
2021/07/20 05:27:00;;;;;;;8.50;6.75;;;;;;;;;;5055629;28;20107;-78
2021/07/20 05:29:27;;;;;;;12.85;7.07;;;;;;;;;;5055403;28;20025;-75
2021/07/20 05:31:55;;;;;;;10.48;7.30;;;;;;;;;;5037843;28;20021;-77
2021/07/20 05:34:21;;;;;;;9.13;6.35;;;;;;;;;;5055756;28;20097;-78
2021/07/20 05:36:47;;;;;;;10.43;7.30;;;;;;;;;;5055638;28;20025;-75
2021/07/20 05:39:13;;;;;;;10.63;6.80;;;;;;;;;;5055448;28;20021;-76
2021/07/20 05:41:40;;;;;;;13.88;7.95;;;;;;;;;;5055271;28;20473;-76
2021/07/20 05:44:09;;;;;;;13.68;6.90;;;;;;;;;;5055633;28;20032;-76
2021/07/20 05:46:35;;;;;;;12.57;7.37;;;;;;;;;;5055481;28;20155;-73
2021/07/20 05:49:01;;;;;;;14.10;8.82;;;;;;;;;;5055279;28;20108;-79
2021/07/20 05:51:28;;;;;;;22.52;12.30;;;;;;;;;;5055207;28;20494;-78
2021/07/20 05:53:54;;;;;;;18.48;12.00;;;;;;;;;;5054999;28;20032;-76
2021/07/20 05:56:21;;;;;;;18.95;10.60;;;;;;;;;;5055280;28;20027;-76
2021/07/20 05:58:47;;;;;;;20.75;10.52;;;;;;;;;;5055265;28;20047;-76
2021/07/20 06:01:13;;;;;;;20.25;10.65;;;;;;;;;;5055173;28;20029;-75
2021/07/20 06:03:40;;;;;;;20.13;10.98;;;;;;;;;;5054888;28;20495;-77
2021/07/20 06:06:06;;;;;;;18.83;10.00;;;;;;;;;;5050483;28;20021;-75
2021/07/20 06:08:33;;;;;;;19.98;9.50;;;;;;;;;;5033879;28;20052;-75
2021/07/20 06:11:06;;;;;;;15.40;8.68;;;;;;;;;;5035270;28;20033;-80
2021/07/20 06:13:33;;;;;;;15.07;8.55;;;;;;;;;;5034981;28;20105;-79
2021/07/20 06:16:00;;;;;;;14.43;9.70;;;;;;;;;;5034868;28;20032;-76
2021/07/20 06:18:26;;;;;;;13.20;7.93;;;;;;;;;;5034903;28;20104;-78
2021/07/20 06:20:52;;;;;;;13.20;7.80;;;;;;;;;;5034897;28;20021;-76
2021/07/20 06:23:19;;;;;;;14.57;8.73;;;;;;;;;;5034804;28;20033;-76
2021/07/20 06:25:45;;;;;;;14.70;8.20;;;;;;;;;;5016923;28;20478;-75
2021/07/20 06:28:12;;;;;;;14.48;8.77;;;;;;;;;;5034522;28;20032;-75
2021/07/20 06:30:40;;;;;;;13.07;9.13;;;;;;;;;;5034657;28;20105;-77
2021/07/20 06:33:06;;;;;;;11.73;8.10;;;;;;;;;;5034616;28;20029;-74
2021/07/20 06:35:32;;;;;;;17.25;8.90;;;;;;;;;;5034608;28;20470;-76
2021/07/20 06:37:59;;;;;;;13.43;8.52;;;;;;;;;;5034430;28;20028;-77
2021/07/20 06:40:25;;;;;;;12.23;8.95;;;;;;;;;;5034472;28;20516;-80
2021/07/20 06:42:55;;;;;;;14.07;8.93;;;;;;;;;;5034423;28;20057;-76
2021/07/20 06:45:21;;;;;;;;;;;;;;;;;;5017098;28;20025;-77
2021/07/20 06:47:48;;;;;;;11.68;9.18;;;;;;;;;;5034430;28;19916;-79
2021/07/20 06:50:18;;;;;;;13.48;8.90;;;;;;;;;;5034135;28;20471;-79
2021/07/20 06:52:46;;;;;;;14.52;8.95;;;;;;;;;;5034421;28;20022;-74
2021/07/20 06:55:13;;;;;;;13.85;9.32;;;;;;;;;;5034129;28;20029;-77
2021/07/20 06:57:42;;;;;;;12.48;8.30;;;;;;;;;;5034177;28;20022;-76
2021/07/20 07:00:08;;;;;;;12.40;8.38;;;;;;;;;;5034119;28;20037;-77
2021/07/20 07:02:36;;;;;;;12.75;8.90;;;;;;;;;;5033901;28;20096;-76
2021/07/20 07:05:05;;;;;;;12.45;8.30;;;;;;;;;;5033846;28;20034;-78
2021/07/20 07:07:31;;;;;;;11.93;9.47;;;;;;;;;;5032008;28;20021;-77
2021/07/20 07:10:01;;;;;;;13.73;10.27;;;;;;;;;;5053487;28;20319;-75
2021/07/20 07:12:28;;;;;;;13.95;8.85;;;;;;;;;;5040503;28;20028;-79
2021/07/20 07:14:54;;;;;;;13.57;8.55;;;;;;;;;;5044756;28;20561;-79
2021/07/20 07:17:20;;;;;;;14.18;8.55;;;;;;;;;;5033812;28;20049;-78
2021/07/20 07:19:49;;;;;;;13.35;8.40;;;;;;;;;;5036538;28;20032;-81
2021/07/20 07:22:18;;;;;;;9.05;7.63;;;;;;;;;;5033792;28;20034;-76
2021/07/20 07:24:44;;;;;;;11.67;8.63;;;;;;;;;;5039058;28;20103;-77
2021/07/20 07:27:11;;;;;;;11.10;7.53;;;;;;;;;;5053375;28;20028;-78
2021/07/20 07:29:37;;;;;;;10.18;7.93;;;;;;;;;;5052860;28;20401;-76
2021/07/20 07:32:03;;;;;;;12.32;7.40;;;;;;;;;;5053555;28;20408;-81
2021/07/20 07:34:29;;;;;;;10.32;7.28;;;;;;;;;;5052767;28;20029;-81
2021/07/20 07:36:55;;;;;;;9.98;6.38;;;;;;;;;;5016621;28;20401;-81
2021/07/20 07:39:22;;;;;;;12.48;6.57;;;;;;;;;;5039849;28;20025;-78
2021/07/20 07:41:49;;;;;;;9.02;6.13;;;;;;;;;;5034179;28;20021;-77
2021/07/20 07:44:16;;;;;;;8.95;5.65;;;;;;;;;;5033174;28;20033;-79
2021/07/20 07:46:44;;;;;;;8.98;6.05;;;;;;;;;;5034131;28;20513;-81
2021/07/20 07:49:10;;;;;;;8.65;5.70;;;;;;;;;;5033253;28;20397;-81
2021/07/20 07:51:37;;;;;;;11.85;6.47;;;;;;;;;;5050112;28;20029;-78
2021/07/20 07:54:04;;;;;;;8.27;5.78;;;;;;;;;;5052975;28;20036;-76
2021/07/20 07:56:30;;;;;;;8.57;5.35;;;;;;;;;;5037525;28;20100;-78
2021/07/20 07:58:57;;;;;;;10.35;5.60;;;;;;;;;;5033282;28;20030;-77
2021/07/20 08:01:23;;;;;;;8.70;5.60;;;;;;;;;;5047381;28;20489;-77
2021/07/20 08:03:50;;;;;;;9.68;6.00;;;;;;;;;;5052079;28;20033;-80
2021/07/20 08:06:21;;;;;;;8.43;5.30;;;;;;;;;;5046401;28;20076;-78
2021/07/20 08:08:48;;;;;;;8.13;5.97;;;;;;;;;;5038524;28;20048;-78
2021/07/20 08:11:14;;;;;;;9.68;5.53;;;;;;;;;;5065554;28;20082;-78
2021/07/20 08:13:42;;;;;;;7.85;5.95;;;;;;;;;;5072975;28;20024;-77
2021/07/20 08:16:08;;;;;;;8.93;5.70;;;;;;;;;;5060554;28;20029;-80
2021/07/20 08:18:35;;;;;;;9.60;6.15;;;;;;;;;;5052932;28;20036;-78
2021/07/20 08:21:03;;;;;;;12.48;6.53;;;;;;;;;;5062672;28;20153;-78
2021/07/20 08:23:29;;;;;;;9.05;5.47;;;;;;;;;;5068760;28;20021;-81
2021/07/20 08:25:57;;;;;;;8.82;6.10;;;;;;;;;;5072539;28;20485;-79
2021/07/20 08:28:33;;;;;;;8.65;5.63;;;;;;;;;;5071908;28;20484;-81
2021/07/20 08:31:02;;;;;;;9.30;5.63;;;;;;;;;;5071563;28;20032;-79
2021/07/20 08:33:31;;;;;;;8.38;5.20;;;;;;;;;;5076839;28;20016;-77
2021/07/20 08:36:00;;;;;;;8.90;5.57;;;;;;;;;;5076893;28;20048;-82
2021/07/20 08:38:26;;;;;;;8.40;5.57;;;;;;;;;;5076769;28;20052;-81
2021/07/20 08:40:58;;;;;;;9.30;5.80;;;;;;;;;;5065299;28;20032;-77
2021/07/20 08:43:43;;;;;;;9.02;5.93;;;;;;;;;;5057160;28;20052;-77
2021/07/20 08:46:27;;;;;;;7.38;5.80;;;;;;;;;;5057247;28;20538;-77
2021/07/20 08:48:59;;;;;;;9.80;6.00;;;;;;;;;;5057107;28;20462;-76
2021/07/20 08:51:29;;;;;;;8.70;5.65;;;;;;;;;;5064333;28;20553;-77
2021/07/20 08:54:09;;;;;;;7.78;5.53;;;;;;;;;;5076934;28;20107;-77
2021/07/20 08:56:40;;;;;;;9.80;5.65;;;;;;;;;;5065685;28;20021;-78
2021/07/20 08:59:07;;;;;;;7.88;5.57;;;;;;;;;;5056946;28;20112;-78
2021/07/20 09:01:36;;;;;;;10.93;5.97;;;;;;;;;;5056903;28;20023;-78
2021/07/20 09:04:07;;;;;;;8.13;5.10;;;;;;;;;;5057262;28;20036;-79
2021/07/20 09:06:37;;;;;;;9.18;5.47;;;;;;;;;;5056555;28;20032;-78
2021/07/20 09:09:09;;;;;;;8.43;4.85;;;;;;;;;;5048197;28;20049;-77
2021/07/20 09:11:38;;;;;;;8.20;5.20;;;;;;;;;;5034164;28;20065;-76
2021/07/20 09:14:10;;;;;;;9.15;5.78;;;;;;;;;;5056203;28;20103;-80
2021/07/20 09:16:39;;;;;;;7.93;4.82;;;;;;;;;;5041010;28;20098;-77
2021/07/20 09:19:07;;;;;;;7.65;5.10;;;;;;;;;;5036699;28;20112;-78
2021/07/20 09:21:35;;;;;;;9.30;5.50;;;;;;;;;;5052101;28;20037;-80
2021/07/20 09:24:10;;;;;;;7.80;4.80;;;;;;;;;;5068688;28;20025;-77
2021/07/20 09:26:44;;;;;;;7.80;4.72;;;;;;;;;;5042567;28;20513;-80
2021/07/20 09:29:19;;;;;;;7.55;5.00;;;;;;;;;;5035725;28;20034;-81
2021/07/20 09:31:47;;;;;;;6.78;4.95;;;;;;;;;;5035857;28;20100;-81
2021/07/20 09:34:34;;;;;;;6.55;5.05;;;;;;;;;;5036471;28;20378;-78
2021/07/20 09:37:03;;;;;;;6.85;4.80;;;;;;;;;;4987867;28;20035;-80
2021/07/20 09:39:32;;;;;;;;;;;;;;;;;;5034774;28;20017;-78
2021/07/20 09:42:13;;;;;;;10.18;5.38;;;;;;;;;;5035587;28;19943;-78
2021/07/20 09:44:50;;;;;;;8.80;5.55;;;;;;;;;;5036297;28;20112;-80
2021/07/20 09:47:19;;;;;;;8.23;4.85;;;;;;;;;;5035951;28;20084;-79
2021/07/20 09:49:53;;;;;;;8.50;5.13;;;;;;;;;;5045951;28;20522;-74
2021/07/20 09:52:37;;;;;;;6.10;4.72;;;;;;;;;;5045581;28;20022;-80
2021/07/20 09:55:23;;;;;;;8.32;5.00;;;;;;;;;;5038957;28;20060;-80
2021/07/20 09:57:54;;;;;;;7.45;5.10;;;;;;;;;;5015295;28;20386;-84
2021/07/20 10:00:28;;;;;;;8.70;5.20;;;;;;;;;;5048168;28;20116;-83
2021/07/20 10:03:06;;;;;;;9.05;5.25;;;;;;;;;;5038908;28;20358;-78
2021/07/20 10:05:51;;;;;;;9.23;4.38;;;;;;;;;;5055743;28;20024;-78
2021/07/20 10:08:20;;;;;;;10.07;5.25;;;;;;;;;;5035328;28;20040;-85
2021/07/20 10:10:59;;;;;;;8.07;5.10;;;;;;;;;;5035779;28;20026;-78
2021/07/20 10:13:38;;;;;;;8.55;5.10;;;;;;;;;;5035865;28;20478;-77
2021/07/20 10:16:23;;;;;;;7.13;4.80;;;;;;;;;;5035394;28;20385;-80
2021/07/20 10:19:04;;;;;;;6.18;4.45;;;;;;;;;;5055433;28;20036;-80
2021/07/20 10:21:31;;;;;;;8.40;5.05;;;;;;;;;;5054489;28;20078;-79
2021/07/20 10:24:18;;;;;;;6.35;4.97;;;;;;;;;;5055147;28;20025;-81
2021/07/20 10:26:44;;;;;;;8.50;4.55;;;;;;;;;;5050735;28;20053;-81
2021/07/20 10:29:13;;;;;;;7.78;4.38;;;;;;;;;;5034715;28;20087;-82
2021/07/20 10:31:42;;;;;;;9.93;4.63;;;;;;;;;;5020268;28;20049;-80
2021/07/20 10:34:12;;;;;;;8.18;5.15;;;;;;;;;;5055311;28;20079;-79
2021/07/20 10:36:52;;;;;;;9.35;4.65;;;;;;;;;;5052486;28;20037;-76
2021/07/20 10:39:26;;;;;;;6.90;4.40;;;;;;;;;;5054262;28;20489;-75
2021/07/20 10:41:58;;;;;;;8.18;4.55;;;;;;;;;;5053403;28;20042;-75
2021/07/20 10:44:35;;;;;;;9.38;4.18;;;;;;;;;;5054370;28;20032;-76
2021/07/20 10:47:04;;;;;;;4.47;4.03;;;;;;;;;;5054526;28;20028;-75
2021/07/20 10:49:37;;;;;;;9.35;4.70;;;;;;;;;;5054201;28;20771;-75
2021/07/20 10:52:11;;;;;;;8.40;4.80;;;;;;;;;;5054585;28;20410;-75
2021/07/20 10:54:40;;;;;;;6.88;4.40;;;;;;;;;;5053830;28;20021;-75
2021/07/20 10:57:10;;;;;;;9.82;4.60;;;;;;;;;;5054383;28;20021;-76
2021/07/20 10:59:48;;;;;;;8.45;4.45;;;;;;;;;;5054346;28;20029;-76
2021/07/20 11:02:14;;;;;;;;;;;;;;;;;;5055136;28;20370;-75
2021/07/20 11:04:58;;;;;;;5.80;4.45;;;;;;;;;;5053968;28;19904;-74
2021/07/20 11:07:31;;;;;;;7.20;4.40;;;;;;;;;;5053597;28;20040;-76
2021/07/20 11:10:06;;;;;;;8.05;4.63;;;;;;;;;;5053524;28;20052;-75
2021/07/20 11:12:34;;;;;;;5.90;4.43;;;;;;;;;;5053341;28;20548;-75
2021/07/20 11:15:00;;;;;;;8.43;4.63;;;;;;;;;;5053299;28;20017;-75
2021/07/20 11:17:27;;;;;;;7.25;4.30;;;;;;;;;;5053794;28;20025;-74
2021/07/20 11:19:54;;;;;;;5.15;4.28;;;;;;;;;;5054012;28;20028;-75
2021/07/20 11:22:21;;;;;;;7.17;4.83;;;;;;;;;;5054006;28;20389;-75
2021/07/20 11:24:47;;;;;;;11.07;5.18;;;;;;;;;;5053949;28;20040;-75
2021/07/20 11:27:17;;;;;;;9.23;5.32;;;;;;;;;;5053958;28;20029;-74
2021/07/20 11:29:43;;;;;;;7.82;4.80;;;;;;;;;;5053852;28;20029;-75
2021/07/20 11:32:14;;;;;;;11.68;5.32;;;;;;;;;;5053554;28;20470;-74
2021/07/20 11:34:45;;;;;;;8.93;6.03;;;;;;;;;;5053594;28;20025;-75
2021/07/20 11:37:16;;;;;;;7.80;5.38;;;;;;;;;;5053537;28;20022;-74
2021/07/20 11:39:54;;;;;;;9.15;5.25;;;;;;;;;;5053776;28;20059;-74
2021/07/20 11:42:32;;;;;;;7.90;5.07;;;;;;;;;;5054024;28;20063;-74
2021/07/20 11:45:00;;;;;;;8.88;5.40;;;;;;;;;;5053612;28;20029;-74
2021/07/20 11:47:37;;;;;;;7.65;5.13;;;;;;;;;;5053380;28;20017;-74
2021/07/20 11:50:06;;;;;;;7.55;5.35;;;;;;;;;;5053275;28;20071;-76
2021/07/20 11:52:47;;;;;;;10.27;5.88;;;;;;;;;;5053504;28;20025;-74
2021/07/20 11:55:19;;;;;;;7.93;5.50;;;;;;;;;;5053173;28;20073;-75
2021/07/20 11:58:04;;;;;;;9.05;5.30;;;;;;;;;;5053280;28;20025;-75
2021/07/20 12:00:49;;;;;;;9.27;5.90;;;;;;;;;;5053175;28;20028;-74
2021/07/20 12:03:34;;;;;;;9.57;5.90;;;;;;;;;;5053682;28;20033;-75
2021/07/20 12:06:19;;;;;;;7.53;5.80;;;;;;;;;;5052613;28;20017;-76
2021/07/20 12:08:59;;;;;;;7.40;5.78;;;;;;;;;;5053089;28;20095;-75
2021/07/20 12:11:44;;;;;;;8.23;5.28;;;;;;;;;;5053681;28;20036;-74
2021/07/20 12:14:11;;;;;;;8.43;6.10;;;;;;;;;;5053638;28;20100;-75
2021/07/20 12:16:56;;;;;;;8.07;5.38;;;;;;;;;;5053078;28;20148;-75
2021/07/20 12:19:27;;;;;;;9.68;5.63;;;;;;;;;;5053575;28;20061;-75
2021/07/20 12:21:53;;;;;;;6.95;5.15;;;;;;;;;;5052986;28;20029;-75
2021/07/20 12:24:22;;;;;;;8.38;5.65;;;;;;;;;;5035030;28;20511;-75
2021/07/20 12:26:48;;;;;;;8.48;5.03;;;;;;;;;;5052951;28;20025;-75
2021/07/20 12:29:15;;;;;;;10.35;5.68;;;;;;;;;;5053122;28;20025;-75
2021/07/20 12:31:41;;;;;;;6.90;5.20;;;;;;;;;;5052934;28;20099;-75
2021/07/20 12:34:07;;;;;;;10.13;6.00;;;;;;;;;;5052900;28;20021;-75
2021/07/20 12:36:37;;;;;;;6.60;5.38;;;;;;;;;;5053126;28;20096;-75
2021/07/20 12:39:13;;;;;;;9.88;5.88;;;;;;;;;;5052859;28;20102;-75
2021/07/20 12:41:50;;;;;;;7.55;4.97;;;;;;;;;;5053392;28;20029;-75
2021/07/20 12:44:16;;;;;;;7.90;5.50;;;;;;;;;;5053333;28;20029;-75
2021/07/20 12:46:42;;;;;;;7.82;5.50;;;;;;;;;;5053047;28;20021;-74
2021/07/20 12:49:10;;;;;;;7.68;5.95;;;;;;;;;;5052685;28;20033;-74
2021/07/20 12:51:44;;;;;;;7.53;5.28;;;;;;;;;;5053036;28;20509;-75
2021/07/20 12:54:10;;;;;;;8.38;5.55;;;;;;;;;;5052824;28;20469;-74
2021/07/20 12:56:36;;;;;;;9.55;5.70;;;;;;;;;;5052694;28;20021;-75
2021/07/20 12:59:04;;;;;;;7.43;4.82;;;;;;;;;;5052599;28;20051;-75
2021/07/20 13:01:32;;;;;;;7.60;5.07;;;;;;;;;;5052619;28;20025;-75
2021/07/20 13:03:58;;;;;;;8.02;5.03;;;;;;;;;;5052911;28;20080;-75
2021/07/20 13:06:24;;;;;;;8.27;4.97;;;;;;;;;;5052611;28;20025;-75
2021/07/20 13:08:52;;;;;;;7.28;5.32;;;;;;;;;;5052536;28;20189;-75
2021/07/20 13:11:18;;;;;;;7.15;4.85;;;;;;;;;;5052567;28;20025;-75
2021/07/20 13:13:44;;;;;;;8.15;5.38;;;;;;;;;;5052814;28;20072;-75
2021/07/20 13:16:13;;;;;;;6.63;4.85;;;;;;;;;;5052768;28;20552;-75
2021/07/20 13:18:39;;;;;;;8.73;5.45;;;;;;;;;;5055076;28;20025;-75
2021/07/20 13:21:05;;;;;;;6.93;5.10;;;;;;;;;;5056052;28;20025;-74
2021/07/20 13:23:40;;;;;;;8.55;5.53;;;;;;;;;;5055990;28;20496;-76
2021/07/20 13:26:06;;;;;;;7.50;5.05;;;;;;;;;;5056274;28;20021;-74
2021/07/20 13:28:34;;;;;;;8.23;5.25;;;;;;;;;;5055863;28;20052;-75
2021/07/20 13:31:01;;;;;;;6.38;4.72;;;;;;;;;;5055854;28;20021;-75
2021/07/20 13:33:27;;;;;;;9.40;5.15;;;;;;;;;;5055787;28;20025;-75
2021/07/20 13:35:55;;;;;;;7.72;5.20;;;;;;;;;;5055766;28;20025;-74
2021/07/20 13:38:23;;;;;;;9.63;5.30;;;;;;;;;;5055718;28;20028;-75
2021/07/20 13:40:50;;;;;;;8.57;4.68;;;;;;;;;;5055696;28;20074;-75
2021/07/20 13:43:16;;;;;;;9.00;5.13;;;;;;;;;;5055629;28;20040;-75
2021/07/20 13:45:43;;;;;;;6.68;4.93;;;;;;;;;;5055836;28;20029;-74
2021/07/20 13:48:09;;;;;;;7.03;4.78;;;;;;;;;;5055472;28;20033;-75
2021/07/20 13:50:35;;;;;;;9.68;5.00;;;;;;;;;;5055433;28;20028;-74
2021/07/20 13:53:06;;;;;;;6.65;4.97;;;;;;;;;;5055698;28;20029;-75
2021/07/20 13:55:32;;;;;;;7.50;5.15;;;;;;;;;;5055333;28;20079;-75
2021/07/20 13:57:59;;;;;;;6.95;4.55;;;;;;;;;;5055335;28;20444;-73
2021/07/20 14:00:25;;;;;;;7.90;5.47;;;;;;;;;;5055258;28;20071;-75
2021/07/20 14:02:55;;;;;;;8.98;5.20;;;;;;;;;;5055511;28;20025;-76
2021/07/20 14:05:21;;;;;;;;;;;;;;;;;;5055631;28;20025;-75
2021/07/20 14:07:49;;;;;;;9.10;5.50;;;;;;;;;;5055147;28;20284;-75
2021/07/20 14:10:16;;;;;;;8.05;4.93;;;;;;;;;;5068910;28;20044;-74
2021/07/20 14:12:43;;;;;;;7.95;4.95;;;;;;;;;;5075059;28;20070;-74
2021/07/20 14:15:10;;;;;;;7.78;5.30;;;;;;;;;;5075552;28;20024;-76
2021/07/20 14:17:37;;;;;;;7.97;5.10;;;;;;;;;;5075262;28;20021;-74
2021/07/20 14:20:06;;;;;;;8.23;5.03;;;;;;;;;;5074931;28;20032;-74
2021/07/20 14:22:32;;;;;;;7.18;5.05;;;;;;;;;;5074833;28;20028;-75
2021/07/20 14:24:58;;;;;;;10.32;5.13;;;;;;;;;;5074797;28;20081;-75
2021/07/20 14:27:25;;;;;;;7.30;5.07;;;;;;;;;;5074794;28;20029;-76
2021/07/20 14:29:52;;;;;;;6.95;4.90;;;;;;;;;;5074103;28;20032;-75
2021/07/20 14:32:20;;;;;;;9.43;4.95;;;;;;;;;;5074663;28;20387;-76
2021/07/20 14:34:47;;;;;;;7.35;4.75;;;;;;;;;;5074617;28;20473;-74
2021/07/20 14:37:32;;;;;;;8.30;4.90;;;;;;;;;;5074873;28;20025;-75
2021/07/20 14:39:58;;;;;;;8.38;5.47;;;;;;;;;;5074498;28;20504;-74
2021/07/20 14:42:27;;;;;;;7.65;5.32;;;;;;;;;;5074424;28;20024;-74
2021/07/20 14:44:53;;;;;;;9.80;5.68;;;;;;;;;;5074437;28;20393;-73
2021/07/20 14:47:31;;;;;;;7.40;5.22;;;;;;;;;;5074636;28;20027;-76
2021/07/20 14:50:09;;;;;;;7.57;5.50;;;;;;;;;;5074285;28;20032;-75